createdAt,value
2023-03-27T00:04:26.289Z,6.00
2023-03-27T00:06:55.765Z,6.00
2023-03-27T00:09:27.273Z,6.00
2023-03-27T00:11:57.837Z,5.90
2023-03-27T00:14:26.238Z,5.90
2023-03-27T00:16:54.704Z,5.90
2023-03-27T00:19:23.129Z,5.90
2023-03-27T00:21:51.871Z,5.80
2023-03-27T00:24:20.753Z,5.80
2023-03-27T00:26:50.665Z,5.80
2023-03-27T00:29:19.077Z,5.70
2023-03-27T00:34:16.780Z,5.70
2023-03-27T00:36:51.127Z,5.70
2023-03-27T00:39:20.573Z,5.60
2023-03-27T00:41:50.605Z,5.50
2023-03-27T00:44:31.184Z,5.60
2023-03-27T00:47:02.997Z,5.60
2023-03-27T00:49:37.253Z,5.60
2023-03-27T00:52:09.162Z,5.60
2023-03-27T00:54:40.363Z,5.50
2023-03-27T00:57:16.319Z,5.50
2023-03-27T00:59:47.832Z,5.50
2023-03-27T01:02:19.248Z,5.60
2023-03-27T01:04:50.384Z,5.50
2023-03-27T01:07:19.920Z,5.50
2023-03-27T01:09:49.220Z,5.50
2023-03-27T01:12:41.059Z,5.50
2023-03-27T01:15:33.952Z,5.50
2023-03-27T01:18:23.553Z,5.50
2023-03-27T01:21:55.670Z,5.50
2023-03-27T01:25:13.185Z,5.50
2023-03-27T01:28:22.164Z,5.40
2023-03-27T01:31:01.459Z,5.30
2023-03-27T01:34:01.130Z,5.30
2023-03-27T01:37:05.611Z,5.20
2023-03-27T01:39:49.628Z,5.20
2023-03-27T01:42:24.259Z,5.30
2023-03-27T01:45:01.665Z,5.20
2023-03-27T01:47:50.212Z,5.20
2023-03-27T01:50:28.024Z,5.20
2023-03-27T01:53:04.809Z,5.10
2023-03-27T01:55:39.195Z,5.20
2023-03-27T02:00:53.047Z,5.20
2023-03-27T02:03:40.213Z,5.20
2023-03-27T02:06:16.994Z,5.10
2023-03-27T02:08:52.037Z,5.10
2023-03-27T02:11:27.329Z,5.00
2023-03-27T02:14:01.009Z,5.10
2023-03-27T02:16:35.719Z,5.10
2023-03-27T02:19:14.793Z,5.10
2023-03-27T02:26:43.325Z,5.00
2023-03-27T02:29:36.853Z,5.00
2023-03-27T02:32:25.403Z,5.00
2023-03-27T02:35:13.740Z,5.00
2023-03-27T02:37:59.452Z,4.90
2023-03-27T02:41:06.559Z,5.00
2023-03-27T02:44:02.081Z,5.00
2023-03-27T02:46:53.229Z,5.00
2023-03-27T02:49:29.980Z,5.10
2023-03-27T02:52:04.698Z,5.00
2023-03-27T02:54:41.470Z,5.00
2023-03-27T02:57:16.302Z,5.00
2023-03-27T03:00:28.114Z,5.10
2023-03-27T03:08:38.867Z,5.00
2023-03-27T03:11:15.258Z,5.00
2023-03-27T03:13:43.840Z,5.00
2023-03-27T03:16:14.424Z,5.00
2023-03-27T03:18:42.954Z,5.00
2023-03-27T03:21:11.311Z,4.90
2023-03-27T03:23:40.243Z,5.00
2023-03-27T03:26:09.950Z,4.90
2023-03-27T03:29:00.498Z,4.90
2023-03-27T03:34:16.287Z,4.90
2023-03-27T03:36:49.227Z,4.80
2023-03-27T03:41:52.059Z,4.70
2023-03-27T03:44:20.931Z,4.70
2023-03-27T03:46:51.051Z,4.60
2023-03-27T03:49:22.997Z,4.50
2023-03-27T03:54:33.420Z,4.40
2023-03-27T03:57:03.253Z,4.40
2023-03-27T03:59:32.457Z,4.40
2023-03-27T04:02:38.635Z,4.30
2023-03-27T04:05:13.100Z,4.30
2023-03-27T04:07:42.630Z,4.30
2023-03-27T04:13:07.560Z,4.30
2023-03-27T04:15:47.037Z,4.30
2023-03-27T04:18:32.701Z,4.30
2023-03-27T04:21:04.281Z,4.20
2023-03-27T04:23:33.927Z,4.30
2023-03-27T04:26:03.977Z,4.20
2023-03-27T04:28:55.508Z,4.20
2023-03-27T04:34:39.780Z,4.20
2023-03-27T04:37:34.468Z,4.10
2023-03-27T04:40:18.166Z,4.10
2023-03-27T04:42:47.021Z,4.10
2023-03-27T04:45:20.260Z,4.10
2023-03-27T04:47:51.482Z,4.00
2023-03-27T04:50:22.899Z,3.90
2023-03-27T04:52:51.875Z,4.00
2023-03-27T04:55:25.844Z,3.90
2023-03-27T04:57:56.684Z,3.90
2023-03-27T05:00:25.439Z,3.90
2023-03-27T05:03:13.913Z,3.80
2023-03-27T05:06:10.094Z,3.70
2023-03-27T05:08:39.228Z,3.80
2023-03-27T05:11:08.803Z,3.80
2023-03-27T05:13:42.437Z,3.80
2023-03-27T05:18:46.236Z,3.70
2023-03-27T05:21:16.816Z,3.70
2023-03-27T05:26:14.265Z,3.70
2023-03-27T05:28:58.619Z,3.90
2023-03-27T05:31:29.383Z,3.80
2023-03-27T05:34:09.848Z,3.70
2023-03-27T05:36:42.900Z,3.70
2023-03-27T05:39:12.185Z,3.70
2023-03-27T05:41:43.377Z,3.70
2023-03-27T05:44:11.861Z,3.70
2023-03-27T05:46:44.111Z,3.70
2023-03-27T05:49:20.543Z,3.70
2023-03-27T05:51:55.290Z,3.70
2023-03-27T05:54:24.110Z,3.70
2023-03-27T05:56:59.809Z,3.60
2023-03-27T05:59:28.746Z,3.60
2023-03-27T06:02:07.515Z,3.60
2023-03-27T06:04:46.302Z,3.60
2023-03-27T06:07:28.011Z,3.60
2023-03-27T06:09:59.309Z,3.60
2023-03-27T06:12:35.112Z,3.60
2023-03-27T06:15:14.594Z,3.60
2023-03-27T06:17:49.060Z,3.60
2023-03-27T06:22:59.506Z,3.60
2023-03-27T06:25:35.219Z,3.70
2023-03-27T06:28:08.096Z,3.90
2023-03-27T06:30:46.177Z,3.70
2023-03-27T06:33:38.567Z,3.70
2023-03-27T06:38:44.019Z,3.80
2023-03-27T06:44:14.084Z,4.90
2023-03-27T06:47:03.157Z,3.70
2023-03-27T06:49:36.114Z,3.50
2023-03-27T06:52:12.732Z,3.60
2023-03-27T06:54:44.018Z,3.50
2023-03-27T06:57:13.733Z,3.60
2023-03-27T06:59:51.515Z,3.50
2023-03-27T07:02:24.571Z,3.60
2023-03-27T07:05:30.856Z,3.70
2023-03-27T07:08:05.480Z,3.70
2023-03-27T07:10:59.771Z,3.80
2023-03-27T07:16:12.740Z,3.90
2023-03-27T07:18:42.346Z,4.00
2023-03-27T07:23:42.077Z,4.00
2023-03-27T07:26:14.593Z,4.10
2023-03-27T07:29:00.838Z,4.10
2023-03-27T07:31:51.097Z,5.00
2023-03-27T07:34:18.581Z,4.30
2023-03-27T07:39:36.509Z,4.20
2023-03-27T07:42:06.981Z,4.00
2023-03-27T07:47:26.045Z,3.70
2023-03-27T07:49:54.981Z,3.70
2023-03-27T07:52:24.800Z,3.80
2023-03-27T07:55:01.771Z,4.00
2023-03-27T07:57:57.237Z,4.10
2023-03-27T08:00:29.930Z,4.20
2023-03-27T08:03:14.144Z,4.20
2023-03-27T08:05:56.060Z,4.30
2023-03-27T08:08:33.420Z,4.50
2023-03-27T08:13:45.394Z,4.50
2023-03-27T08:16:18.287Z,4.40
2023-03-27T08:18:49.812Z,4.50
2023-03-27T08:21:18.798Z,4.60
2023-03-27T08:23:51.876Z,4.70
2023-03-27T08:26:40.518Z,4.70
2023-03-27T08:29:14.356Z,4.70
2023-03-27T08:31:47.716Z,4.70
2023-03-27T08:34:17.720Z,4.70
2023-03-27T08:36:48.811Z,4.70
2023-03-27T08:39:18.789Z,4.80
2023-03-27T08:42:03.487Z,4.80
2023-03-27T08:44:38.640Z,4.70
2023-03-27T08:47:20.700Z,4.70
2023-03-27T08:50:29.029Z,4.50
2023-03-27T08:53:21.199Z,4.50
2023-03-27T08:55:49.978Z,4.40
2023-03-27T08:58:24.409Z,3.10
2023-03-27T09:01:11.634Z,4.10
2023-03-27T09:03:54.316Z,4.20
2023-03-27T09:09:19.776Z,4.20
2023-03-27T09:12:04.026Z,4.20
2023-03-27T09:14:42.144Z,4.00
2023-03-27T09:17:23.539Z,4.00
2023-03-27T09:19:58.056Z,3.90
2023-03-27T09:22:33.199Z,4.00
2023-03-27T09:25:29.051Z,4.00
2023-03-27T09:28:03.549Z,4.00
2023-03-27T09:30:40.389Z,4.70
2023-03-27T09:33:30.482Z,5.90
2023-03-27T09:36:00.752Z,7.00
2023-03-27T09:38:36.973Z,8.00
2023-03-27T09:41:14.209Z,7.90
2023-03-27T09:43:53.606Z,8.30
2023-03-27T09:46:26.099Z,8.60
2023-03-27T09:49:13.602Z,9.40
2023-03-27T09:51:50.327Z,9.20
2023-03-27T09:54:53.346Z,8.30
2023-03-27T09:57:34.055Z,8.40
2023-03-27T10:00:14.481Z,9.30
2023-03-27T10:03:03.873Z,10.00
2023-03-27T10:05:35.887Z,10.30
2023-03-27T10:08:32.234Z,9.50
2023-03-27T10:11:19.848Z,9.20
2023-03-27T10:13:53.814Z,9.30
2023-03-27T10:16:27.865Z,9.20
2023-03-27T10:19:22.954Z,9.20
2023-03-27T10:21:57.138Z,8.90
2023-03-27T10:24:35.997Z,8.10
2023-03-27T10:27:27.533Z,8.00
2023-03-27T10:30:33.931Z,9.00
2023-03-27T10:33:33.986Z,10.40
2023-03-27T10:36:38.260Z,9.90
2023-03-27T10:39:16.167Z,8.70
2023-03-27T10:41:56.349Z,7.80
2023-03-27T10:44:28.830Z,7.20
2023-03-27T10:46:59.634Z,7.90
2023-03-27T10:49:42.595Z,8.80
2023-03-27T10:52:24.549Z,8.80
2023-03-27T10:55:48.775Z,8.80
2023-03-27T10:58:32.653Z,8.20
2023-03-27T11:01:12.964Z,8.10
2023-03-27T11:03:55.065Z,8.80
2023-03-27T11:06:34.124Z,9.80
2023-03-27T11:09:16.195Z,10.30
2023-03-27T11:12:04.387Z,9.50
2023-03-27T11:14:53.430Z,8.50
2023-03-27T11:17:31.416Z,7.80
2023-03-27T11:20:27.332Z,7.40
2023-03-27T11:23:22.567Z,7.10
2023-03-27T11:26:16.783Z,8.40
2023-03-27T11:28:58.925Z,9.50
2023-03-27T11:31:46.100Z,10.60
2023-03-27T11:34:28.613Z,10.50
2023-03-27T11:37:07.993Z,9.60
2023-03-27T11:39:53.193Z,8.50
2023-03-27T11:42:25.597Z,8.20
2023-03-27T11:44:57.556Z,7.80
2023-03-27T11:48:14.362Z,8.60
2023-03-27T11:51:00.008Z,10.10
2023-03-27T11:54:00.664Z,10.30
2023-03-27T11:56:54.475Z,9.80
2023-03-27T12:00:28.070Z,9.10
2023-03-27T12:03:36.831Z,8.40
2023-03-27T12:06:16.642Z,8.10
2023-03-27T12:09:11.426Z,7.80
2023-03-27T12:12:24.578Z,7.40
2023-03-27T12:15:15.246Z,7.00
2023-03-27T12:18:04.026Z,6.90
2023-03-27T12:20:56.312Z,7.00
2023-03-27T12:24:07.753Z,7.10
2023-03-27T12:27:26.181Z,7.30
2023-03-27T12:30:28.877Z,7.20
2023-03-27T12:33:41.453Z,7.00
2023-03-27T12:36:18.894Z,6.60
2023-03-27T12:38:49.091Z,6.50
2023-03-27T12:41:27.281Z,6.50
2023-03-27T12:44:22.102Z,6.30
2023-03-27T12:47:18.277Z,6.60
2023-03-27T12:49:56.934Z,8.10
2023-03-27T12:52:30.334Z,9.50
2023-03-27T12:55:34.313Z,10.20
2023-03-27T12:58:06.144Z,10.80
2023-03-27T13:01:09.374Z,11.10
2023-03-27T13:04:18.287Z,11.70
2023-03-27T13:06:57.781Z,11.30
2023-03-27T13:10:05.254Z,10.00
2023-03-27T13:13:21.875Z,8.50
2023-03-27T13:16:12.698Z,6.90
2023-03-27T13:19:09.335Z,6.10
2023-03-27T13:22:13.456Z,5.60
2023-03-27T13:25:11.308Z,5.30
2023-03-27T13:28:08.867Z,5.20
2023-03-27T13:30:48.915Z,4.90
2023-03-27T13:33:47.754Z,4.70
2023-03-27T13:36:33.550Z,4.20
2023-03-27T13:39:25.137Z,3.90
2023-03-27T13:42:12.866Z,4.60
2023-03-27T13:45:00.386Z,6.00
2023-03-27T13:48:28.577Z,6.50
2023-03-27T13:51:51.824Z,7.30
2023-03-27T13:55:50.036Z,8.20
2023-03-27T13:59:48.118Z,9.00
2023-03-27T14:03:18.788Z,9.60
2023-03-27T14:06:39.868Z,10.10
2023-03-27T14:09:21.452Z,10.10
2023-03-27T14:12:20.537Z,10.40
2023-03-27T14:15:39.939Z,9.40
2023-03-27T14:19:06.508Z,9.40
2023-03-27T14:21:56.167Z,9.00
2023-03-27T14:24:38.291Z,8.40
2023-03-27T14:27:23.760Z,7.80
2023-03-27T14:30:09.224Z,7.50
2023-03-27T14:32:41.009Z,8.10
2023-03-27T14:38:09.057Z,6.90
2023-03-27T14:40:50.231Z,5.80
2023-03-27T14:43:22.902Z,4.50
2023-03-27T14:46:01.320Z,3.80
2023-03-27T14:48:34.247Z,3.40
2023-03-27T14:51:13.612Z,3.20
2023-03-27T14:53:46.323Z,3.00
2023-03-27T14:56:30.495Z,3.10
2023-03-27T15:02:21.415Z,2.60
2023-03-27T15:04:51.823Z,2.50
2023-03-27T15:07:28.557Z,2.30
2023-03-27T15:10:22.555Z,2.20
2023-03-27T15:13:27.931Z,2.50
2023-03-27T15:16:01.004Z,2.60
2023-03-27T15:18:38.431Z,3.10
2023-03-27T15:21:19.967Z,4.10
2023-03-27T15:24:00.949Z,3.40
2023-03-27T15:26:35.280Z,5.30
2023-03-27T15:29:18.023Z,5.70
2023-03-27T15:31:51.245Z,5.70
2023-03-27T15:34:34.289Z,5.40
2023-03-27T15:37:07.526Z,4.80
2023-03-27T15:40:27.191Z,4.40
2023-03-27T15:43:04.496Z,4.00
2023-03-27T15:45:43.403Z,3.90
2023-03-27T15:48:21.912Z,4.10
2023-03-27T15:50:58.377Z,4.20
2023-03-27T15:53:40.008Z,3.80
2023-03-27T15:56:23.195Z,-0.20
2023-03-27T15:58:55.312Z,3.50
2023-03-27T16:04:05.340Z,3.30
2023-03-27T16:06:39.997Z,3.30
2023-03-27T16:09:24.960Z,3.20
2023-03-27T16:14:32.170Z,3.40
2023-03-27T16:19:56.440Z,4.60
2023-03-27T16:22:30.660Z,5.10
2023-03-27T16:25:01.619Z,5.50
2023-03-27T16:27:38.396Z,5.70
2023-03-27T16:30:10.975Z,5.70
2023-03-27T16:32:41.154Z,5.70
2023-03-27T16:35:10.234Z,5.30
2023-03-27T16:40:10.429Z,4.60
2023-03-27T16:42:39.327Z,5.00
2023-03-27T16:47:38.296Z,4.00
2023-03-27T16:50:19.724Z,3.60
2023-03-27T16:52:50.421Z,3.90
2023-03-27T16:55:19.059Z,3.70
2023-03-27T16:57:47.506Z,3.70
2023-03-27T17:00:19.999Z,3.70
2023-03-27T17:02:49.169Z,3.60
2023-03-27T17:05:19.401Z,3.20
2023-03-27T17:07:48.394Z,3.50
2023-03-27T17:10:17.708Z,3.40
2023-03-27T17:12:46.176Z,2.70
2023-03-27T17:15:16.170Z,3.30
2023-03-27T17:20:14.053Z,3.30
2023-03-27T17:22:44.794Z,3.20
2023-03-27T17:27:43.083Z,3.20
2023-03-27T17:30:12.996Z,3.20
2023-03-27T17:35:11.699Z,3.10
2023-03-27T17:37:40.287Z,3.10
2023-03-27T17:40:14.398Z,3.10
2023-03-27T17:42:43.310Z,3.00
2023-03-27T17:45:19.591Z,2.90
2023-03-27T17:47:50.427Z,2.80
2023-03-27T17:50:19.423Z,2.80
2023-03-27T17:52:47.764Z,3.30
2023-03-27T17:55:17.956Z,2.80
2023-03-27T18:00:28.163Z,2.70
2023-03-27T18:02:56.806Z,2.60
2023-03-27T18:05:26.669Z,2.50
2023-03-27T18:10:26.813Z,2.50
2023-03-27T18:12:55.480Z,2.50
2023-03-27T18:17:52.931Z,2.40
2023-03-27T18:20:21.366Z,2.40
2023-03-27T18:25:19.524Z,2.40
2023-03-27T18:27:49.249Z,2.30
2023-03-27T18:30:19.150Z,2.60
2023-03-27T18:35:19.833Z,2.20
2023-03-27T18:37:48.432Z,2.20
2023-03-27T18:42:49.302Z,2.00
2023-03-27T18:45:18.687Z,2.10
2023-03-27T18:47:47.236Z,2.30
2023-03-27T18:50:16.733Z,1.90
2023-03-27T18:52:45.342Z,1.80
2023-03-27T18:55:15.137Z,1.70
2023-03-27T18:57:43.522Z,1.60
2023-03-27T19:00:18.461Z,1.70
2023-03-27T19:02:48.031Z,1.60
2023-03-27T19:05:17.855Z,1.50
2023-03-27T19:07:46.906Z,1.50
2023-03-27T19:10:15.281Z,1.50
2023-03-27T19:12:49.702Z,5.20
2023-03-27T19:15:41.965Z,2.10
2023-03-27T19:18:30.538Z,1.40
2023-03-27T19:21:17.959Z,1.40
2023-03-27T19:23:50.551Z,1.30
2023-03-27T19:28:51.376Z,1.40
2023-03-27T19:31:21.611Z,1.30
2023-03-27T19:33:50.021Z,1.30
2023-03-27T19:38:47.231Z,1.20
2023-03-27T19:41:15.664Z,1.00
2023-03-27T19:43:44.433Z,1.00
2023-03-27T19:46:16.118Z,0.90
2023-03-27T19:51:30.289Z,1.10
2023-03-27T19:53:58.695Z,0.90
2023-03-27T19:56:28.451Z,0.70
2023-03-27T19:58:57.662Z,0.90
2023-03-27T20:01:28.377Z,1.50
2023-03-27T20:03:58.877Z,0.80
2023-03-27T20:06:28.895Z,0.70
2023-03-27T20:09:00.713Z,0.70
2023-03-27T20:11:29.577Z,0.70
2023-03-27T20:13:59.173Z,0.70
2023-03-27T20:16:29.579Z,0.70
2023-03-27T20:19:05.699Z,0.60
2023-03-27T20:21:38.739Z,0.50
2023-03-27T20:24:12.547Z,0.50
2023-03-27T20:26:48.382Z,0.40
2023-03-27T20:29:24.085Z,0.40
2023-03-27T20:31:52.556Z,0.30
2023-03-27T20:34:24.043Z,0.20
2023-03-27T20:36:55.100Z,0.10
2023-03-27T20:39:55.957Z,-0.30
2023-03-27T20:42:26.612Z,0.10
2023-03-27T20:44:58.257Z,0.10
2023-03-27T20:47:27.141Z,0.10
2023-03-27T20:49:59.098Z,0.20
2023-03-27T20:54:57.018Z,0.50
2023-03-27T20:57:25.450Z,0.50
2023-03-27T20:59:54.355Z,0.50
2023-03-27T21:04:52.568Z,0.40
2023-03-27T21:07:22.429Z,0.40
2023-03-27T21:09:50.953Z,0.30
2023-03-27T21:12:19.403Z,0.30
2023-03-27T21:14:48.019Z,0.30
2023-03-27T21:17:16.416Z,0.20
2023-03-27T21:19:44.949Z,0.20
2023-03-27T21:24:44.415Z,0.30
2023-03-27T21:27:12.908Z,0.30
2023-03-27T21:29:41.270Z,0.30
2023-03-27T21:32:10.200Z,0.30
2023-03-27T21:34:39.310Z,0.20
2023-03-27T21:37:08.270Z,0.10
2023-03-27T21:39:36.633Z,0.00
2023-03-27T21:42:06.608Z,-0.10
2023-03-27T21:44:35.429Z,1.00
2023-03-27T21:47:03.770Z,0.00
2023-03-27T21:49:32.288Z,0.10
2023-03-27T21:54:29.750Z,0.30
2023-03-27T21:56:58.082Z,0.40
2023-03-27T21:59:30.208Z,0.50
2023-03-27T22:01:59.018Z,0.50
2023-03-27T22:04:27.551Z,0.50
2023-03-27T22:06:56.076Z,0.50
2023-03-27T22:14:22.372Z,0.30
2023-03-27T22:16:52.410Z,0.20
2023-03-27T22:19:20.863Z,0.10
2023-03-27T22:21:49.314Z,0.00
2023-03-27T22:24:17.897Z,-0.10
2023-03-27T22:26:46.646Z,-0.60
2023-03-27T22:29:15.118Z,-0.30
2023-03-27T22:31:43.748Z,-0.40
2023-03-27T22:34:13.832Z,-0.40
2023-03-27T22:36:43.169Z,-0.50
2023-03-27T22:39:11.752Z,-0.50
2023-03-27T22:41:40.345Z,-0.50
2023-03-27T22:44:08.708Z,-0.70
2023-03-27T22:46:37.711Z,-0.70
2023-03-27T22:51:36.854Z,-0.80
2023-03-27T22:54:06.415Z,-0.90
2023-03-27T22:56:34.868Z,-0.90
2023-03-27T22:59:03.480Z,-0.90
2023-03-27T23:01:32.481Z,0.70
2023-03-27T23:06:30.667Z,-1.70
2023-03-27T23:09:01.402Z,-0.70
2023-03-27T23:16:27.761Z,-0.50
2023-03-27T23:26:24.406Z,0.10
2023-03-27T23:31:21.744Z,0.30
2023-03-27T23:33:52.186Z,0.30
2023-03-27T23:36:23.562Z,-0.50
2023-03-27T23:38:53.682Z,0.30
2023-03-27T23:41:24.175Z,0.30
2023-03-27T23:43:54.019Z,0.40
2023-03-27T23:46:22.816Z,0.40
2023-03-27T23:48:51.497Z,0.30
2023-03-27T23:51:19.932Z,0.20
2023-03-27T23:53:48.615Z,0.20
2023-03-27T23:56:16.979Z,0.00
2023-03-27T23:58:46.765Z,0.10
